sensor_id;sensor_type;location;lat;lon;timestamp;P1;durP1;ratioP1;P2;durP2;ratioP2
74612;SDS011;63119;51.788;8.824;2023-06-26T00:00:06;6.27;;;4.83;;
74612;SDS011;63119;51.788;8.824;2023-06-26T00:02:32;7.07;;;4.72;;
74612;SDS011;63119;51.788;8.824;2023-06-26T00:04:58;8.97;;;4.30;;
74612;SDS011;63119;51.788;8.824;2023-06-26T00:07:23;6.65;;;4.53;;
74612;SDS011;63119;51.788;8.824;2023-06-26T00:09:49;6.00;;;4.68;;
74612;SDS011;63119;51.788;8.824;2023-06-26T00:12:14;6.33;;;4.87;;
74612;SDS011;63119;51.788;8.824;2023-06-26T00:14:39;7.40;;;4.87;;
74612;SDS011;63119;51.788;8.824;2023-06-26T00:17:04;5.73;;;4.50;;
74612;SDS011;63119;51.788;8.824;2023-06-26T00:19:30;6.07;;;4.37;;
74612;SDS011;63119;51.788;8.824;2023-06-26T00:21:55;7.47;;;4.67;;
74612;SDS011;63119;51.788;8.824;2023-06-26T00:24:20;6.83;;;4.40;;
74612;SDS011;63119;51.788;8.824;2023-06-26T00:26:46;6.20;;;4.65;;
74612;SDS011;63119;51.788;8.824;2023-06-26T00:29:12;7.32;;;4.53;;
74612;SDS011;63119;51.788;8.824;2023-06-26T00:31:37;6.73;;;4.83;;
74612;SDS011;63119;51.788;8.824;2023-06-26T00:34:04;7.30;;;4.57;;
74612;SDS011;63119;51.788;8.824;2023-06-26T00:36:30;6.00;;;4.38;;
74612;SDS011;63119;51.788;8.824;2023-06-26T00:38:55;5.80;;;4.40;;
74612;SDS011;63119;51.788;8.824;2023-06-26T00:41:20;6.23;;;4.30;;
74612;SDS011;63119;51.788;8.824;2023-06-26T00:43:45;6.87;;;4.70;;
74612;SDS011;63119;51.788;8.824;2023-06-26T00:46:14;7.57;;;4.97;;
74612;SDS011;63119;51.788;8.824;2023-06-26T00:48:41;7.20;;;4.40;;
74612;SDS011;63119;51.788;8.824;2023-06-26T00:51:07;5.75;;;4.60;;
74612;SDS011;63119;51.788;8.824;2023-06-26T00:53:33;5.72;;;4.60;;
74612;SDS011;63119;51.788;8.824;2023-06-26T00:55:59;6.95;;;4.70;;
74612;SDS011;63119;51.788;8.824;2023-06-26T00:58:26;5.88;;;4.63;;
74612;SDS011;63119;51.788;8.824;2023-06-26T01:00:52;6.00;;;4.37;;
74612;SDS011;63119;51.788;8.824;2023-06-26T01:03:17;7.68;;;4.60;;
74612;SDS011;63119;51.788;8.824;2023-06-26T01:05:44;5.95;;;4.63;;
74612;SDS011;63119;51.788;8.824;2023-06-26T01:08:11;6.57;;;4.70;;
74612;SDS011;63119;51.788;8.824;2023-06-26T01:10:38;7.68;;;4.85;;
74612;SDS011;63119;51.788;8.824;2023-06-26T01:13:03;7.13;;;4.72;;
74612;SDS011;63119;51.788;8.824;2023-06-26T01:15:29;7.30;;;5.07;;
74612;SDS011;63119;51.788;8.824;2023-06-26T01:17:55;6.67;;;4.97;;
74612;SDS011;63119;51.788;8.824;2023-06-26T01:20:24;6.90;;;5.15;;
74612;SDS011;63119;51.788;8.824;2023-06-26T01:23:03;7.43;;;4.85;;
74612;SDS011;63119;51.788;8.824;2023-06-26T01:25:37;7.35;;;4.70;;
74612;SDS011;63119;51.788;8.824;2023-06-26T01:28:12;7.60;;;5.05;;
74612;SDS011;63119;51.788;8.824;2023-06-26T01:30:43;8.48;;;5.05;;
74612;SDS011;63119;51.788;8.824;2023-06-26T01:33:10;8.13;;;5.20;;
74612;SDS011;63119;51.788;8.824;2023-06-26T01:35:37;6.43;;;4.22;;
74612;SDS011;63119;51.788;8.824;2023-06-26T01:38:12;6.25;;;4.80;;
74612;SDS011;63119;51.788;8.824;2023-06-26T01:40:41;6.07;;;4.80;;
74612;SDS011;63119;51.788;8.824;2023-06-26T01:43:09;7.28;;;5.07;;
74612;SDS011;63119;51.788;8.824;2023-06-26T01:45:59;7.70;;;5.22;;
74612;SDS011;63119;51.788;8.824;2023-06-26T01:48:30;7.50;;;5.32;;
74612;SDS011;63119;51.788;8.824;2023-06-26T01:51:03;6.68;;;4.57;;
74612;SDS011;63119;51.788;8.824;2023-06-26T01:53:32;7.13;;;5.10;;
74612;SDS011;63119;51.788;8.824;2023-06-26T01:56:06;6.70;;;4.63;;
74612;SDS011;63119;51.788;8.824;2023-06-26T01:58:33;7.20;;;4.53;;
74612;SDS011;63119;51.788;8.824;2023-06-26T02:01:00;6.45;;;4.78;;
74612;SDS011;63119;51.788;8.824;2023-06-26T02:03:26;7.90;;;5.25;;
74612;SDS011;63119;51.788;8.824;2023-06-26T02:05:51;6.65;;;5.10;;
74612;SDS011;63119;51.788;8.824;2023-06-26T02:08:17;6.22;;;4.88;;
74612;SDS011;63119;51.788;8.824;2023-06-26T02:10:42;7.30;;;4.73;;
74612;SDS011;63119;51.788;8.824;2023-06-26T02:13:07;7.60;;;5.13;;
74612;SDS011;63119;51.788;8.824;2023-06-26T02:15:33;7.63;;;5.28;;
74612;SDS011;63119;51.788;8.824;2023-06-26T02:17:58;8.17;;;5.60;;
74612;SDS011;63119;51.788;8.824;2023-06-26T02:20:23;7.57;;;5.53;;
74612;SDS011;63119;51.788;8.824;2023-06-26T02:22:48;6.90;;;5.37;;
74612;SDS011;63119;51.788;8.824;2023-06-26T02:25:14;8.83;;;4.93;;
74612;SDS011;63119;51.788;8.824;2023-06-26T02:27:39;6.72;;;4.90;;
74612;SDS011;63119;51.788;8.824;2023-06-26T02:30:05;8.00;;;5.13;;
74612;SDS011;63119;51.788;8.824;2023-06-26T02:32:30;6.25;;;4.95;;
74612;SDS011;63119;51.788;8.824;2023-06-26T02:34:56;6.77;;;5.23;;
74612;SDS011;63119;51.788;8.824;2023-06-26T02:37:21;6.33;;;4.90;;
74612;SDS011;63119;51.788;8.824;2023-06-26T02:39:46;8.67;;;5.47;;
74612;SDS011;63119;51.788;8.824;2023-06-26T02:42:12;7.73;;;5.47;;
74612;SDS011;63119;51.788;8.824;2023-06-26T02:44:37;6.80;;;4.97;;
74612;SDS011;63119;51.788;8.824;2023-06-26T02:47:02;7.27;;;4.97;;
74612;SDS011;63119;51.788;8.824;2023-06-26T02:49:28;7.88;;;5.82;;
74612;SDS011;63119;51.788;8.824;2023-06-26T02:51:53;10.13;;;5.57;;
74612;SDS011;63119;51.788;8.824;2023-06-26T02:54:18;8.47;;;5.30;;
74612;SDS011;63119;51.788;8.824;2023-06-26T02:56:43;8.63;;;5.43;;
74612;SDS011;63119;51.788;8.824;2023-06-26T02:59:09;7.23;;;5.63;;
74612;SDS011;63119;51.788;8.824;2023-06-26T03:01:34;8.13;;;5.40;;
74612;SDS011;63119;51.788;8.824;2023-06-26T03:03:59;7.83;;;5.07;;
74612;SDS011;63119;51.788;8.824;2023-06-26T03:06:25;7.68;;;5.53;;
74612;SDS011;63119;51.788;8.824;2023-06-26T03:08:51;8.52;;;6.13;;
74612;SDS011;63119;51.788;8.824;2023-06-26T03:11:16;8.63;;;6.10;;
74612;SDS011;63119;51.788;8.824;2023-06-26T03:13:41;7.03;;;5.37;;
74612;SDS011;63119;51.788;8.824;2023-06-26T03:16:07;9.40;;;6.27;;
74612;SDS011;63119;51.788;8.824;2023-06-26T03:18:32;7.47;;;5.70;;
74612;SDS011;63119;51.788;8.824;2023-06-26T03:20:57;8.43;;;5.47;;
74612;SDS011;63119;51.788;8.824;2023-06-26T03:23:23;8.18;;;5.30;;
74612;SDS011;63119;51.788;8.824;2023-06-26T03:25:48;8.52;;;5.30;;
74612;SDS011;63119;51.788;8.824;2023-06-26T03:28:14;7.00;;;5.03;;
74612;SDS011;63119;51.788;8.824;2023-06-26T03:30:39;10.27;;;5.57;;
74612;SDS011;63119;51.788;8.824;2023-06-26T03:33:04;7.70;;;5.70;;
74612;SDS011;63119;51.788;8.824;2023-06-26T03:35:30;8.47;;;5.77;;
74612;SDS011;63119;51.788;8.824;2023-06-26T03:37:55;8.40;;;5.73;;
74612;SDS011;63119;51.788;8.824;2023-06-26T03:40:20;10.50;;;5.73;;
74612;SDS011;63119;51.788;8.824;2023-06-26T03:42:46;8.70;;;5.57;;
74612;SDS011;63119;51.788;8.824;2023-06-26T03:45:11;7.37;;;5.23;;
74612;SDS011;63119;51.788;8.824;2023-06-26T03:47:36;9.45;;;5.05;;
74612;SDS011;63119;51.788;8.824;2023-06-26T03:50:01;7.77;;;5.93;;
74612;SDS011;63119;51.788;8.824;2023-06-26T03:52:27;9.67;;;5.77;;
74612;SDS011;63119;51.788;8.824;2023-06-26T03:54:52;8.77;;;5.53;;
74612;SDS011;63119;51.788;8.824;2023-06-26T03:57:17;8.13;;;6.10;;
74612;SDS011;63119;51.788;8.824;2023-06-26T03:59:42;6.73;;;5.60;;
74612;SDS011;63119;51.788;8.824;2023-06-26T04:02:08;8.23;;;5.27;;
74612;SDS011;63119;51.788;8.824;2023-06-26T04:04:33;8.67;;;5.83;;
74612;SDS011;63119;51.788;8.824;2023-06-26T04:06:58;8.53;;;5.87;;
74612;SDS011;63119;51.788;8.824;2023-06-26T04:09:24;8.13;;;5.82;;
74612;SDS011;63119;51.788;8.824;2023-06-26T04:11:50;8.77;;;6.15;;
74612;SDS011;63119;51.788;8.824;2023-06-26T04:14:15;10.20;;;5.93;;
74612;SDS011;63119;51.788;8.824;2023-06-26T04:16:40;8.90;;;5.90;;
74612;SDS011;63119;51.788;8.824;2023-06-26T04:19:06;9.40;;;5.97;;
74612;SDS011;63119;51.788;8.824;2023-06-26T04:21:31;7.90;;;5.93;;
74612;SDS011;63119;51.788;8.824;2023-06-26T04:23:56;7.77;;;5.63;;
74612;SDS011;63119;51.788;8.824;2023-06-26T04:26:21;6.60;;;5.03;;
74612;SDS011;63119;51.788;8.824;2023-06-26T04:28:47;7.60;;;5.57;;
74612;SDS011;63119;51.788;8.824;2023-06-26T04:31:12;6.57;;;5.57;;
74612;SDS011;63119;51.788;8.824;2023-06-26T04:33:37;8.90;;;5.87;;
74612;SDS011;63119;51.788;8.824;2023-06-26T04:36:03;8.65;;;5.63;;
74612;SDS011;63119;51.788;8.824;2023-06-26T04:38:29;7.60;;;5.30;;
74612;SDS011;63119;51.788;8.824;2023-06-26T04:40:55;9.38;;;5.72;;
74612;SDS011;63119;51.788;8.824;2023-06-26T04:43:21;9.13;;;5.33;;
74612;SDS011;63119;51.788;8.824;2023-06-26T04:45:46;7.13;;;5.27;;
74612;SDS011;63119;51.788;8.824;2023-06-26T04:48:11;10.93;;;5.73;;
74612;SDS011;63119;51.788;8.824;2023-06-26T04:50:36;7.97;;;5.57;;
74612;SDS011;63119;51.788;8.824;2023-06-26T04:53:02;9.83;;;5.50;;
74612;SDS011;63119;51.788;8.824;2023-06-26T04:55:27;10.38;;;5.60;;
74612;SDS011;63119;51.788;8.824;2023-06-26T04:57:53;8.27;;;5.25;;
74612;SDS011;63119;51.788;8.824;2023-06-26T05:00:18;8.90;;;4.77;;
74612;SDS011;63119;51.788;8.824;2023-06-26T05:02:43;6.47;;;4.78;;
74612;SDS011;63119;51.788;8.824;2023-06-26T05:05:09;6.37;;;4.47;;
74612;SDS011;63119;51.788;8.824;2023-06-26T05:07:35;6.72;;;5.28;;
74612;SDS011;63119;51.788;8.824;2023-06-26T05:10:00;7.47;;;4.40;;
74612;SDS011;63119;51.788;8.824;2023-06-26T05:12:25;8.07;;;4.47;;
74612;SDS011;63119;51.788;8.824;2023-06-26T05:14:51;4.67;;;3.80;;
74612;SDS011;63119;51.788;8.824;2023-06-26T05:17:16;6.78;;;4.55;;
74612;SDS011;63119;51.788;8.824;2023-06-26T05:19:41;8.97;;;4.20;;
74612;SDS011;63119;51.788;8.824;2023-06-26T05:22:07;6.55;;;4.05;;
74612;SDS011;63119;51.788;8.824;2023-06-26T05:24:36;6.97;;;4.20;;
74612;SDS011;63119;51.788;8.824;2023-06-26T05:27:03;5.88;;;4.13;;
74612;SDS011;63119;51.788;8.824;2023-06-26T05:29:32;5.90;;;4.28;;
74612;SDS011;63119;51.788;8.824;2023-06-26T05:31:58;8.02;;;4.80;;
74612;SDS011;63119;51.788;8.824;2023-06-26T05:34:24;6.20;;;4.07;;
74612;SDS011;63119;51.788;8.824;2023-06-26T05:36:53;7.57;;;4.63;;
74612;SDS011;63119;51.788;8.824;2023-06-26T05:39:22;6.20;;;3.88;;
74612;SDS011;63119;51.788;8.824;2023-06-26T05:41:47;6.00;;;3.92;;
74612;SDS011;63119;51.788;8.824;2023-06-26T05:44:13;7.50;;;4.35;;
74612;SDS011;63119;51.788;8.824;2023-06-26T05:46:38;5.33;;;3.90;;
74612;SDS011;63119;51.788;8.824;2023-06-26T05:49:03;4.97;;;4.03;;
74612;SDS011;63119;51.788;8.824;2023-06-26T05:51:29;5.87;;;3.93;;
74612;SDS011;63119;51.788;8.824;2023-06-26T05:53:54;7.15;;;4.22;;
74612;SDS011;63119;51.788;8.824;2023-06-26T05:56:20;5.97;;;4.50;;
74612;SDS011;63119;51.788;8.824;2023-06-26T05:58:45;9.93;;;4.65;;
74612;SDS011;63119;51.788;8.824;2023-06-26T06:01:11;6.50;;;4.13;;
74612;SDS011;63119;51.788;8.824;2023-06-26T06:03:36;7.47;;;4.23;;
74612;SDS011;63119;51.788;8.824;2023-06-26T06:06:02;6.90;;;4.30;;
74612;SDS011;63119;51.788;8.824;2023-06-26T06:08:28;5.95;;;4.28;;
74612;SDS011;63119;51.788;8.824;2023-06-26T06:10:53;8.40;;;4.00;;
74612;SDS011;63119;51.788;8.824;2023-06-26T06:13:18;5.07;;;3.70;;
74612;SDS011;63119;51.788;8.824;2023-06-26T06:15:44;8.23;;;4.30;;
74612;SDS011;63119;51.788;8.824;2023-06-26T06:18:09;6.13;;;4.30;;
74612;SDS011;63119;51.788;8.824;2023-06-26T06:20:34;9.03;;;4.23;;
74612;SDS011;63119;51.788;8.824;2023-06-26T06:23:00;6.45;;;4.53;;
74612;SDS011;63119;51.788;8.824;2023-06-26T06:25:25;6.60;;;4.43;;
74612;SDS011;63119;51.788;8.824;2023-06-26T06:27:50;7.23;;;4.20;;
74612;SDS011;63119;51.788;8.824;2023-06-26T06:30:15;6.27;;;4.30;;
74612;SDS011;63119;51.788;8.824;2023-06-26T06:32:41;6.70;;;4.30;;
74612;SDS011;63119;51.788;8.824;2023-06-26T06:35:06;5.87;;;4.37;;
74612;SDS011;63119;51.788;8.824;2023-06-26T06:37:35;6.60;;;3.95;;
74612;SDS011;63119;51.788;8.824;2023-06-26T06:40:01;7.18;;;4.57;;
74612;SDS011;63119;51.788;8.824;2023-06-26T06:42:26;7.50;;;4.60;;
74612;SDS011;63119;51.788;8.824;2023-06-26T06:44:52;8.20;;;4.73;;
74612;SDS011;63119;51.788;8.824;2023-06-26T06:47:17;5.67;;;3.83;;
74612;SDS011;63119;51.788;8.824;2023-06-26T06:49:42;7.23;;;4.67;;
74612;SDS011;63119;51.788;8.824;2023-06-26T06:52:07;7.17;;;4.80;;
74612;SDS011;63119;51.788;8.824;2023-06-26T06:54:33;10.00;;;4.65;;
74612;SDS011;63119;51.788;8.824;2023-06-26T06:57:16;6.85;;;5.07;;
74612;SDS011;63119;51.788;8.824;2023-06-26T06:59:41;7.23;;;5.10;;
74612;SDS011;63119;51.788;8.824;2023-06-26T07:02:07;8.32;;;4.68;;
74612;SDS011;63119;51.788;8.824;2023-06-26T07:04:32;7.30;;;4.83;;
74612;SDS011;63119;51.788;8.824;2023-06-26T07:06:57;6.23;;;4.73;;
74612;SDS011;63119;51.788;8.824;2023-06-26T07:09:22;7.77;;;5.40;;
74612;SDS011;63119;51.788;8.824;2023-06-26T07:11:48;8.83;;;5.23;;
74612;SDS011;63119;51.788;8.824;2023-06-26T07:14:13;7.43;;;4.87;;
74612;SDS011;63119;51.788;8.824;2023-06-26T07:16:38;7.67;;;4.77;;
74612;SDS011;63119;51.788;8.824;2023-06-26T07:19:03;9.30;;;4.73;;
74612;SDS011;63119;51.788;8.824;2023-06-26T07:21:29;9.67;;;4.50;;
74612;SDS011;63119;51.788;8.824;2023-06-26T07:23:54;8.53;;;4.67;;
74612;SDS011;63119;51.788;8.824;2023-06-26T07:26:19;9.70;;;4.60;;
74612;SDS011;63119;51.788;8.824;2023-06-26T07:28:46;7.38;;;4.50;;
74612;SDS011;63119;51.788;8.824;2023-06-26T07:31:13;7.45;;;4.78;;
74612;SDS011;63119;51.788;8.824;2023-06-26T07:33:39;7.03;;;4.80;;
74612;SDS011;63119;51.788;8.824;2023-06-26T07:36:05;7.35;;;4.95;;
74612;SDS011;63119;51.788;8.824;2023-06-26T07:38:30;6.30;;;4.65;;
74612;SDS011;63119;51.788;8.824;2023-06-26T07:40:56;8.35;;;4.70;;
74612;SDS011;63119;51.788;8.824;2023-06-26T07:43:21;6.37;;;4.70;;
74612;SDS011;63119;51.788;8.824;2023-06-26T07:45:47;6.78;;;4.88;;
74612;SDS011;63119;51.788;8.824;2023-06-26T07:48:13;8.97;;;4.97;;
74612;SDS011;63119;51.788;8.824;2023-06-26T07:50:38;8.13;;;5.37;;
74612;SDS011;63119;51.788;8.824;2023-06-26T07:53:03;6.60;;;4.80;;
74612;SDS011;63119;51.788;8.824;2023-06-26T07:55:30;9.65;;;5.20;;
74612;SDS011;63119;51.788;8.824;2023-06-26T07:57:56;8.38;;;5.85;;
74612;SDS011;63119;51.788;8.824;2023-06-26T08:00:21;10.40;;;5.77;;
74612;SDS011;63119;51.788;8.824;2023-06-26T08:02:46;9.67;;;5.27;;
74612;SDS011;63119;51.788;8.824;2023-06-26T08:05:12;7.35;;;4.70;;
74612;SDS011;63119;51.788;8.824;2023-06-26T08:07:37;7.67;;;5.10;;
74612;SDS011;63119;51.788;8.824;2023-06-26T08:10:03;10.23;;;5.57;;
74612;SDS011;63119;51.788;8.824;2023-06-26T08:12:28;9.02;;;5.47;;
74612;SDS011;63119;51.788;8.824;2023-06-26T08:14:54;8.13;;;5.07;;
74612;SDS011;63119;51.788;8.824;2023-06-26T08:17:19;7.93;;;5.30;;
74612;SDS011;63119;51.788;8.824;2023-06-26T08:19:44;11.43;;;5.00;;
74612;SDS011;63119;51.788;8.824;2023-06-26T08:22:09;12.10;;;5.30;;
74612;SDS011;63119;51.788;8.824;2023-06-26T08:24:35;8.67;;;5.03;;
74612;SDS011;63119;51.788;8.824;2023-06-26T08:27:01;12.30;;;5.10;;
74612;SDS011;63119;51.788;8.824;2023-06-26T08:29:28;6.65;;;4.75;;
74612;SDS011;63119;51.788;8.824;2023-06-26T08:31:53;8.37;;;4.70;;
74612;SDS011;63119;51.788;8.824;2023-06-26T08:34:18;8.60;;;4.80;;
74612;SDS011;63119;51.788;8.824;2023-06-26T08:36:44;7.93;;;4.97;;
74612;SDS011;63119;51.788;8.824;2023-06-26T08:39:09;11.23;;;5.00;;
74612;SDS011;63119;51.788;8.824;2023-06-26T08:41:35;9.33;;;5.27;;
74612;SDS011;63119;51.788;8.824;2023-06-26T08:44:01;11.35;;;5.55;;
74612;SDS011;63119;51.788;8.824;2023-06-26T08:46:28;8.75;;;5.88;;
74612;SDS011;63119;51.788;8.824;2023-06-26T08:48:57;12.18;;;5.55;;
74612;SDS011;63119;51.788;8.824;2023-06-26T08:51:26;9.15;;;4.70;;
74612;SDS011;63119;51.788;8.824;2023-06-26T08:53:59;10.98;;;5.10;;
74612;SDS011;63119;51.788;8.824;2023-06-26T08:56:30;10.30;;;5.30;;
74612;SDS011;63119;51.788;8.824;2023-06-26T08:58:57;8.48;;;5.13;;
74612;SDS011;63119;51.788;8.824;2023-06-26T09:01:23;8.93;;;5.07;;
74612;SDS011;63119;51.788;8.824;2023-06-26T09:03:50;9.60;;;5.45;;
74612;SDS011;63119;51.788;8.824;2023-06-26T09:06:16;10.95;;;5.13;;
74612;SDS011;63119;51.788;8.824;2023-06-26T09:08:43;10.50;;;5.70;;
74612;SDS011;63119;51.788;8.824;2023-06-26T09:11:08;10.67;;;6.33;;
74612;SDS011;63119;51.788;8.824;2023-06-26T09:13:33;9.00;;;5.53;;
74612;SDS011;63119;51.788;8.824;2023-06-26T09:15:59;9.90;;;6.25;;
74612;SDS011;63119;51.788;8.824;2023-06-26T09:18:31;11.27;;;6.30;;
74612;SDS011;63119;51.788;8.824;2023-06-26T09:20:57;10.50;;;5.55;;
74612;SDS011;63119;51.788;8.824;2023-06-26T09:23:23;11.30;;;7.13;;
74612;SDS011;63119;51.788;8.824;2023-06-26T09:25:48;18.33;;;7.32;;
74612;SDS011;63119;51.788;8.824;2023-06-26T09:28:16;12.73;;;6.93;;
74612;SDS011;63119;51.788;8.824;2023-06-26T09:30:41;13.07;;;6.97;;
74612;SDS011;63119;51.788;8.824;2023-06-26T09:33:13;10.55;;;5.97;;
74612;SDS011;63119;51.788;8.824;2023-06-26T09:35:45;12.00;;;6.25;;
74612;SDS011;63119;51.788;8.824;2023-06-26T09:38:12;10.65;;;6.63;;
74612;SDS011;63119;51.788;8.824;2023-06-26T09:40:38;13.40;;;6.82;;
74612;SDS011;63119;51.788;8.824;2023-06-26T09:43:04;11.65;;;6.10;;
74612;SDS011;63119;51.788;8.824;2023-06-26T09:45:31;10.80;;;5.80;;
74612;SDS011;63119;51.788;8.824;2023-06-26T09:48:00;10.13;;;6.03;;
74612;SDS011;63119;51.788;8.824;2023-06-26T09:50:28;10.65;;;6.18;;
74612;SDS011;63119;51.788;8.824;2023-06-26T09:52:53;11.48;;;6.03;;
74612;SDS011;63119;51.788;8.824;2023-06-26T09:55:19;11.93;;;6.30;;
74612;SDS011;63119;51.788;8.824;2023-06-26T09:57:46;10.73;;;5.68;;
74612;SDS011;63119;51.788;8.824;2023-06-26T10:00:12;9.32;;;5.80;;
74612;SDS011;63119;51.788;8.824;2023-06-26T10:02:39;13.75;;;6.20;;
74612;SDS011;63119;51.788;8.824;2023-06-26T10:05:04;13.40;;;5.60;;
74612;SDS011;63119;51.788;8.824;2023-06-26T10:07:30;10.52;;;5.80;;
74612;SDS011;63119;51.788;8.824;2023-06-26T10:09:56;11.25;;;6.20;;
74612;SDS011;63119;51.788;8.824;2023-06-26T10:12:31;10.40;;;5.97;;
74612;SDS011;63119;51.788;8.824;2023-06-26T10:14:57;9.93;;;5.90;;
74612;SDS011;63119;51.788;8.824;2023-06-26T10:17:24;11.75;;;6.50;;
74612;SDS011;63119;51.788;8.824;2023-06-26T10:19:53;14.38;;;7.38;;
74612;SDS011;63119;51.788;8.824;2023-06-26T10:22:21;11.18;;;6.05;;
74612;SDS011;63119;51.788;8.824;2023-06-26T10:24:52;9.65;;;6.07;;
74612;SDS011;63119;51.788;8.824;2023-06-26T10:27:28;13.73;;;5.97;;
74612;SDS011;63119;51.788;8.824;2023-06-26T10:30:00;10.07;;;5.60;;
74612;SDS011;63119;51.788;8.824;2023-06-26T10:32:30;10.88;;;5.60;;
74612;SDS011;63119;51.788;8.824;2023-06-26T10:34:55;9.63;;;5.65;;
74612;SDS011;63119;51.788;8.824;2023-06-26T10:37:21;8.93;;;5.22;;
74612;SDS011;63119;51.788;8.824;2023-06-26T10:40:06;9.23;;;4.80;;
74612;SDS011;63119;51.788;8.824;2023-06-26T10:42:35;8.68;;;4.95;;
74612;SDS011;63119;51.788;8.824;2023-06-26T10:45:09;10.32;;;4.88;;
74612;SDS011;63119;51.788;8.824;2023-06-26T10:47:42;8.32;;;4.93;;
74612;SDS011;63119;51.788;8.824;2023-06-26T10:50:18;8.65;;;4.25;;
74612;SDS011;63119;51.788;8.824;2023-06-26T10:52:44;10.30;;;5.18;;
74612;SDS011;63119;51.788;8.824;2023-06-26T10:55:09;12.15;;;5.00;;
74612;SDS011;63119;51.788;8.824;2023-06-26T10:57:38;9.27;;;4.20;;
74612;SDS011;63119;51.788;8.824;2023-06-26T11:00:10;7.60;;;4.05;;
74612;SDS011;63119;51.788;8.824;2023-06-26T11:02:52;7.53;;;3.70;;
74612;SDS011;63119;51.788;8.824;2023-06-26T11:05:27;8.30;;;4.40;;
74612;SDS011;63119;51.788;8.824;2023-06-26T11:08:04;8.68;;;4.15;;
74612;SDS011;63119;51.788;8.824;2023-06-26T11:10:47;8.13;;;4.78;;
74612;SDS011;63119;51.788;8.824;2023-06-26T11:13:13;11.55;;;4.60;;
74612;SDS011;63119;51.788;8.824;2023-06-26T11:15:39;8.82;;;4.50;;
74612;SDS011;63119;51.788;8.824;2023-06-26T11:18:08;8.50;;;3.72;;
74612;SDS011;63119;51.788;8.824;2023-06-26T11:20:34;8.85;;;3.78;;
74612;SDS011;63119;51.788;8.824;2023-06-26T11:22:59;9.73;;;4.17;;
74612;SDS011;63119;51.788;8.824;2023-06-26T11:25:25;7.70;;;3.83;;
74612;SDS011;63119;51.788;8.824;2023-06-26T11:27:52;10.10;;;3.72;;
74612;SDS011;63119;51.788;8.824;2023-06-26T11:30:22;10.23;;;4.35;;
74612;SDS011;63119;51.788;8.824;2023-06-26T11:32:48;8.70;;;4.07;;
74612;SDS011;63119;51.788;8.824;2023-06-26T11:35:21;8.20;;;4.27;;
74612;SDS011;63119;51.788;8.824;2023-06-26T11:37:55;10.07;;;4.05;;
74612;SDS011;63119;51.788;8.824;2023-06-26T11:40:25;12.30;;;4.20;;
74612;SDS011;63119;51.788;8.824;2023-06-26T11:42:57;7.13;;;3.60;;
74612;SDS011;63119;51.788;8.824;2023-06-26T11:45:23;9.35;;;3.90;;
74612;SDS011;63119;51.788;8.824;2023-06-26T11:47:48;6.53;;;3.47;;
74612;SDS011;63119;51.788;8.824;2023-06-26T11:50:16;7.22;;;3.08;;
74612;SDS011;63119;51.788;8.824;2023-06-26T11:52:42;9.98;;;3.55;;
74612;SDS011;63119;51.788;8.824;2023-06-26T11:55:08;7.95;;;3.50;;
74612;SDS011;63119;51.788;8.824;2023-06-26T11:57:35;7.85;;;3.30;;
74612;SDS011;63119;51.788;8.824;2023-06-26T12:00:10;8.02;;;4.18;;
74612;SDS011;63119;51.788;8.824;2023-06-26T12:02:36;9.80;;;3.65;;
74612;SDS011;63119;51.788;8.824;2023-06-26T12:05:01;6.87;;;3.93;;
74612;SDS011;63119;51.788;8.824;2023-06-26T12:07:27;10.60;;;3.53;;
74612;SDS011;63119;51.788;8.824;2023-06-26T12:09:53;6.75;;;3.30;;
74612;SDS011;63119;51.788;8.824;2023-06-26T12:12:20;8.20;;;3.40;;
74612;SDS011;63119;51.788;8.824;2023-06-26T12:14:45;7.05;;;3.28;;
74612;SDS011;63119;51.788;8.824;2023-06-26T12:17:11;6.47;;;3.10;;
74612;SDS011;63119;51.788;8.824;2023-06-26T12:19:39;7.15;;;3.38;;
74612;SDS011;63119;51.788;8.824;2023-06-26T12:22:07;7.95;;;3.00;;
74612;SDS011;63119;51.788;8.824;2023-06-26T12:24:34;7.07;;;2.78;;
74612;SDS011;63119;51.788;8.824;2023-06-26T12:27:01;6.05;;;2.70;;
74612;SDS011;63119;51.788;8.824;2023-06-26T12:29:35;8.47;;;3.07;;
74612;SDS011;63119;51.788;8.824;2023-06-26T12:32:01;5.88;;;2.45;;
74612;SDS011;63119;51.788;8.824;2023-06-26T12:34:34;5.10;;;2.40;;
74612;SDS011;63119;51.788;8.824;2023-06-26T12:37:01;5.43;;;2.20;;
74612;SDS011;63119;51.788;8.824;2023-06-26T12:39:28;6.35;;;2.60;;
74612;SDS011;63119;51.788;8.824;2023-06-26T12:41:56;7.60;;;3.08;;
74612;SDS011;63119;51.788;8.824;2023-06-26T12:44:25;6.10;;;2.22;;
74612;SDS011;63119;51.788;8.824;2023-06-26T12:46:58;5.22;;;2.40;;
74612;SDS011;63119;51.788;8.824;2023-06-26T12:49:31;4.57;;;2.90;;
74612;SDS011;63119;51.788;8.824;2023-06-26T12:51:59;5.97;;;2.10;;
74612;SDS011;63119;51.788;8.824;2023-06-26T12:54:25;5.75;;;2.40;;
74612;SDS011;63119;51.788;8.824;2023-06-26T12:56:51;6.88;;;2.38;;
74612;SDS011;63119;51.788;8.824;2023-06-26T12:59:17;5.85;;;2.50;;
74612;SDS011;63119;51.788;8.824;2023-06-26T13:01:42;4.73;;;2.20;;
74612;SDS011;63119;51.788;8.824;2023-06-26T13:04:08;14.23;;;3.05;;
74612;SDS011;63119;51.788;8.824;2023-06-26T13:06:33;5.03;;;2.40;;
74612;SDS011;63119;51.788;8.824;2023-06-26T13:08:59;4.60;;;2.50;;
74612;SDS011;63119;51.788;8.824;2023-06-26T13:11:24;5.23;;;2.47;;
74612;SDS011;63119;51.788;8.824;2023-06-26T13:13:49;5.77;;;2.33;;
74612;SDS011;63119;51.788;8.824;2023-06-26T13:16:14;4.83;;;2.00;;
74612;SDS011;63119;51.788;8.824;2023-06-26T13:18:41;3.90;;;2.25;;
74612;SDS011;63119;51.788;8.824;2023-06-26T13:21:06;5.10;;;2.30;;
74612;SDS011;63119;51.788;8.824;2023-06-26T13:23:31;4.95;;;2.10;;
74612;SDS011;63119;51.788;8.824;2023-06-26T13:25:57;5.40;;;2.60;;
74612;SDS011;63119;51.788;8.824;2023-06-26T13:28:22;4.70;;;2.10;;
74612;SDS011;63119;51.788;8.824;2023-06-26T13:30:47;5.43;;;2.13;;
74612;SDS011;63119;51.788;8.824;2023-06-26T13:33:12;4.87;;;2.10;;
74612;SDS011;63119;51.788;8.824;2023-06-26T13:35:38;5.20;;;1.90;;
74612;SDS011;63119;51.788;8.824;2023-06-26T13:38:03;4.13;;;1.90;;
74612;SDS011;63119;51.788;8.824;2023-06-26T13:40:28;3.70;;;2.27;;
74612;SDS011;63119;51.788;8.824;2023-06-26T13:42:53;3.70;;;1.90;;
74612;SDS011;63119;51.788;8.824;2023-06-26T13:45:19;7.10;;;2.10;;
74612;SDS011;63119;51.788;8.824;2023-06-26T13:47:44;3.83;;;2.20;;
74612;SDS011;63119;51.788;8.824;2023-06-26T13:50:09;4.13;;;2.20;;
74612;SDS011;63119;51.788;8.824;2023-06-26T13:52:35;5.93;;;2.45;;
74612;SDS011;63119;51.788;8.824;2023-06-26T13:55:01;5.55;;;2.58;;
74612;SDS011;63119;51.788;8.824;2023-06-26T13:57:31;6.07;;;2.45;;
74612;SDS011;63119;51.788;8.824;2023-06-26T13:59:56;3.70;;;2.30;;
74612;SDS011;63119;51.788;8.824;2023-06-26T14:02:21;4.77;;;2.10;;
74612;SDS011;63119;51.788;8.824;2023-06-26T14:04:47;4.75;;;2.25;;
74612;SDS011;63119;51.788;8.824;2023-06-26T14:07:12;5.15;;;2.47;;
74612;SDS011;63119;51.788;8.824;2023-06-26T14:09:38;7.35;;;2.22;;
74612;SDS011;63119;51.788;8.824;2023-06-26T14:12:03;4.13;;;2.30;;
74612;SDS011;63119;51.788;8.824;2023-06-26T14:14:29;3.47;;;2.20;;
74612;SDS011;63119;51.788;8.824;2023-06-26T14:17:00;5.13;;;2.37;;
74612;SDS011;63119;51.788;8.824;2023-06-26T14:19:26;5.35;;;2.50;;
74612;SDS011;63119;51.788;8.824;2023-06-26T14:21:51;3.83;;;2.15;;
74612;SDS011;63119;51.788;8.824;2023-06-26T14:24:17;3.72;;;2.20;;
74612;SDS011;63119;51.788;8.824;2023-06-26T14:26:42;4.22;;;2.25;;
74612;SDS011;63119;51.788;8.824;2023-06-26T14:29:08;5.53;;;2.35;;
74612;SDS011;63119;51.788;8.824;2023-06-26T14:31:33;4.10;;;1.88;;
74612;SDS011;63119;51.788;8.824;2023-06-26T14:33:59;3.53;;;1.92;;
74612;SDS011;63119;51.788;8.824;2023-06-26T14:36:24;4.03;;;1.90;;
74612;SDS011;63119;51.788;8.824;2023-06-26T14:38:52;3.30;;;1.90;;
74612;SDS011;63119;51.788;8.824;2023-06-26T14:41:21;7.07;;;2.15;;